Terminal Aerodrome Forecast
Issued by NWS Blacksburg, VA

Home | Current Version | Previous Version | Text Only | Print | Product List | Glossary On
Versions: 1 2 3 4 5 6 7 8 9 10 11 12 13 14 15 16 17 18 19 20 21 22 23 24 25 26 27 28 29 30 31 32 33 34 35 36 37 38 39 40 41 42 43 44 45 46 47 48
000
FTUS41 KRNK 262320
TAFBLF
TAF
KBLF 262320Z 2700/2724 17004KT P6SM FEW050
     FM270200 VRB03KT P6SM FEW250
     FM270700 19004KT P6SM FEW040 SCT250
     FM271800 24005KT P6SM VCTS BKN060CB
     FM272000 VRB03KT 3SM RA BKN060=

USA.gov is the U.S. government's official web portal to all federal, state and local government web resources and services.